createdAt,value
2023-12-21T00:00:08.687Z,0.60
2023-12-21T00:03:00.307Z,0.60
2023-12-21T00:05:32.520Z,0.85
2023-12-21T00:08:04.195Z,0.50
2023-12-21T00:10:36.841Z,0.50
2023-12-21T00:13:11.328Z,0.70
2023-12-21T00:15:43.609Z,0.93
2023-12-21T00:18:15.729Z,0.68
2023-12-21T00:20:48.104Z,0.73
2023-12-21T00:23:20.092Z,0.80
2023-12-21T00:25:52.569Z,1.00
2023-12-21T00:28:29.688Z,1.35
2023-12-21T00:31:02.171Z,0.98
2023-12-21T00:33:34.165Z,1.13
2023-12-21T00:36:06.742Z,1.08
2023-12-21T00:38:38.628Z,0.90
2023-12-21T00:41:11.573Z,1.02
2023-12-21T00:43:46.078Z,2.05
2023-12-21T00:46:18.324Z,1.38
2023-12-21T00:48:50.427Z,1.15
2023-12-21T00:51:22.997Z,0.60
2023-12-21T00:54:09.507Z,1.13
2023-12-21T00:56:42.290Z,0.88
2023-12-21T00:59:17.343Z,0.93
2023-12-21T01:01:49.978Z,1.40
2023-12-21T01:04:23.029Z,0.90
2023-12-21T01:06:55.540Z,1.63
2023-12-21T01:09:27.508Z,1.33
2023-12-21T01:11:59.710Z,1.15
2023-12-21T01:14:42.812Z,1.23
2023-12-21T01:17:15.127Z,2.55
2023-12-21T01:19:51.230Z,2.47
2023-12-21T01:22:23.925Z,1.10
2023-12-21T01:24:55.491Z,4.72
2023-12-21T01:27:32.623Z,2.22
2023-12-21T01:30:08.179Z,1.25
2023-12-21T01:32:40.525Z,0.60
2023-12-21T01:35:12.648Z,1.10
2023-12-21T01:37:44.998Z,1.20
2023-12-21T01:40:18.287Z,2.53
2023-12-21T01:42:53.428Z,2.30
2023-12-21T01:45:27.606Z,0.95
2023-12-21T01:48:00.859Z,0.85
2023-12-21T01:50:32.906Z,0.60
2023-12-21T01:53:06.519Z,1.25
2023-12-21T01:55:40.500Z,0.73
2023-12-21T01:58:13.638Z,1.35
2023-12-21T02:00:50.689Z,1.13
2023-12-21T02:03:35.084Z,1.20
2023-12-21T02:06:09.728Z,2.38
2023-12-21T02:08:41.948Z,1.42
2023-12-21T02:11:14.507Z,2.13
2023-12-21T02:13:46.475Z,1.27
2023-12-21T02:16:27.950Z,0.57
2023-12-21T02:19:01.006Z,1.30
2023-12-21T02:21:34.845Z,1.90
2023-12-21T02:24:09.007Z,1.75
2023-12-21T02:26:43.646Z,1.40
2023-12-21T02:29:18.189Z,1.52
2023-12-21T02:31:49.922Z,1.80
2023-12-21T02:34:22.053Z,1.00
2023-12-21T02:36:53.883Z,1.67
2023-12-21T02:39:25.848Z,1.65
2023-12-21T02:42:00.569Z,0.95
2023-12-21T02:44:33.794Z,1.30
2023-12-21T02:47:05.524Z,1.65
2023-12-21T02:49:37.782Z,0.50
2023-12-21T02:52:10.307Z,0.90
2023-12-21T02:54:42.452Z,1.15
2023-12-21T02:57:16.727Z,0.60
2023-12-21T02:59:48.877Z,1.02
2023-12-21T03:02:20.636Z,0.65
2023-12-21T03:04:52.627Z,1.27
2023-12-21T03:07:24.197Z,2.03
2023-12-21T03:09:59.215Z,0.70
2023-12-21T03:12:34.048Z,0.98
2023-12-21T03:15:06.066Z,0.90
2023-12-21T03:17:37.955Z,0.88
2023-12-21T03:20:11.449Z,0.68
2023-12-21T03:22:43.604Z,0.90
2023-12-21T03:25:16.364Z,1.98
2023-12-21T03:27:51.332Z,1.30
2023-12-21T03:30:27.112Z,1.42
2023-12-21T03:32:59.493Z,1.10
2023-12-21T03:35:31.850Z,1.70
2023-12-21T03:38:04.387Z,1.13
2023-12-21T03:40:37.142Z,0.73
2023-12-21T03:43:11.838Z,1.15
2023-12-21T03:45:44.348Z,0.90
2023-12-21T03:48:16.241Z,0.75
2023-12-21T03:50:48.732Z,1.65
2023-12-21T03:53:21.104Z,1.05
2023-12-21T03:55:55.049Z,0.75
2023-12-21T03:58:29.619Z,1.48
2023-12-21T04:01:02.187Z,1.20
2023-12-21T04:03:34.254Z,1.90
2023-12-21T04:06:06.685Z,0.85
2023-12-21T04:08:40.413Z,1.85
2023-12-21T04:11:15.209Z,0.57
2023-12-21T04:13:50.904Z,1.65
2023-12-21T04:16:25.998Z,0.98
2023-12-21T04:18:58.067Z,1.42
2023-12-21T04:21:34.850Z,1.27
2023-12-21T04:24:06.972Z,3.33
2023-12-21T04:26:39.400Z,2.88
2023-12-21T04:29:13.880Z,0.93
2023-12-21T04:31:46.558Z,0.60
2023-12-21T04:34:18.964Z,3.15
2023-12-21T04:36:51.608Z,1.05
2023-12-21T04:39:23.807Z,0.52
2023-12-21T04:41:56.164Z,1.50
2023-12-21T04:44:30.845Z,2.42
2023-12-21T04:47:03.721Z,1.42
2023-12-21T04:49:35.819Z,2.88
2023-12-21T04:52:09.081Z,2.25
2023-12-21T04:54:40.981Z,2.53
2023-12-21T04:57:13.648Z,1.73
2023-12-21T04:59:48.219Z,0.98
2023-12-21T05:02:20.727Z,1.60
2023-12-21T05:04:52.519Z,3.00
2023-12-21T05:07:24.994Z,1.17
2023-12-21T05:10:00.787Z,1.88
2023-12-21T05:12:33.495Z,1.55
2023-12-21T05:15:08.947Z,2.25
2023-12-21T05:17:43.757Z,0.80
2023-12-21T05:20:16.684Z,0.70
2023-12-21T05:22:49.293Z,0.55
2023-12-21T05:25:21.468Z,0.90
2023-12-21T05:27:53.708Z,1.30
2023-12-21T05:30:28.993Z,2.08
2023-12-21T05:33:04.560Z,1.63
2023-12-21T05:35:36.829Z,1.25
2023-12-21T05:38:09.308Z,1.88
2023-12-21T05:40:41.396Z,1.90
2023-12-21T05:43:13.837Z,1.60
2023-12-21T05:45:48.425Z,0.77
2023-12-21T05:48:21.038Z,1.27
2023-12-21T05:50:52.924Z,1.65
2023-12-21T05:53:25.334Z,1.30
2023-12-21T05:55:57.265Z,1.30
2023-12-21T05:58:29.603Z,0.93
2023-12-21T06:01:05.956Z,0.65
2023-12-21T06:03:38.161Z,1.55
2023-12-21T06:06:10.239Z,0.63
2023-12-21T06:08:42.441Z,1.20
2023-12-21T06:11:14.185Z,0.90
2023-12-21T06:13:46.304Z,1.45
2023-12-21T06:16:18.290Z,1.42
2023-12-21T06:18:52.398Z,0.40
2023-12-21T06:21:25.045Z,0.50
2023-12-21T06:23:57.117Z,0.82
2023-12-21T06:26:28.845Z,0.40
2023-12-21T06:29:00.846Z,1.27
2023-12-21T06:31:36.395Z,1.02
2023-12-21T06:34:11.452Z,0.60
2023-12-21T06:36:43.229Z,0.82
2023-12-21T06:39:17.493Z,0.40
2023-12-21T06:41:50.773Z,0.40
2023-12-21T06:44:22.863Z,0.45
2023-12-21T06:46:57.894Z,0.68
2023-12-21T06:49:29.980Z,0.80
2023-12-21T06:52:01.761Z,0.57
2023-12-21T06:54:34.848Z,0.52
2023-12-21T06:57:07.388Z,1.10
2023-12-21T06:59:39.418Z,0.60
2023-12-21T07:02:16.718Z,0.45
2023-12-21T07:04:49.365Z,0.63
2023-12-21T07:07:22.779Z,0.85
2023-12-21T07:09:54.760Z,1.40
2023-12-21T07:12:28.048Z,1.05
2023-12-21T07:15:00.159Z,0.40
2023-12-21T07:17:34.565Z,0.50
2023-12-21T07:20:06.772Z,0.50
2023-12-21T07:22:38.445Z,0.52
2023-12-21T07:25:11.411Z,0.47
2023-12-21T07:27:43.085Z,0.95
2023-12-21T07:30:16.453Z,0.30
2023-12-21T07:32:51.155Z,0.55
2023-12-21T07:35:23.490Z,0.57
2023-12-21T07:37:55.023Z,1.05
2023-12-21T07:40:27.098Z,0.63
2023-12-21T07:42:58.800Z,0.77
2023-12-21T07:45:31.086Z,0.50
2023-12-21T07:48:05.680Z,0.50
2023-12-21T07:50:37.834Z,0.70
2023-12-21T07:53:09.585Z,0.60
2023-12-21T07:55:42.254Z,0.95
2023-12-21T07:58:14.667Z,0.85
2023-12-21T08:00:47.966Z,0.50
2023-12-21T08:03:22.768Z,0.50
2023-12-21T08:05:56.754Z,0.70
2023-12-21T08:08:29.125Z,0.75
2023-12-21T08:11:02.013Z,0.60
2023-12-21T08:13:34.001Z,0.50
2023-12-21T08:16:06.505Z,0.63
2023-12-21T08:18:41.183Z,0.60
2023-12-21T08:21:13.990Z,1.33
2023-12-21T08:23:46.167Z,0.57
2023-12-21T08:26:18.593Z,0.50
2023-12-21T08:28:50.699Z,0.40
2023-12-21T08:31:29.847Z,0.73
2023-12-21T08:34:04.812Z,0.90
2023-12-21T08:36:37.341Z,0.30
2023-12-21T08:39:09.231Z,0.50
2023-12-21T08:41:41.508Z,0.63
2023-12-21T08:44:14.556Z,0.50
2023-12-21T08:46:47.398Z,0.47
2023-12-21T08:49:22.079Z,0.40
2023-12-21T08:51:55.456Z,0.57
2023-12-21T08:54:27.759Z,0.40
2023-12-21T08:57:00.755Z,0.40
2023-12-21T08:59:32.615Z,0.90
2023-12-21T09:02:05.396Z,0.50
2023-12-21T09:04:39.903Z,0.30
2023-12-21T09:07:12.659Z,0.40
2023-12-21T09:09:45.225Z,0.40
2023-12-21T09:12:17.688Z,0.30
2023-12-21T09:14:49.656Z,0.50
2023-12-21T09:17:23.333Z,0.40
2023-12-21T09:19:58.266Z,0.40
2023-12-21T09:22:31.326Z,0.40
2023-12-21T09:25:04.160Z,0.40
2023-12-21T09:27:36.589Z,0.38
2023-12-21T09:30:09.975Z,0.40
2023-12-21T09:32:44.635Z,0.30
2023-12-21T09:35:21.441Z,0.40
2023-12-21T09:37:54.555Z,0.55
2023-12-21T09:40:27.980Z,0.43
2023-12-21T09:43:09.144Z,0.30
2023-12-21T09:45:49.313Z,0.50
2023-12-21T09:48:23.765Z,0.40
2023-12-21T09:51:04.149Z,0.50
2023-12-21T09:53:40.315Z,0.50
2023-12-21T09:56:13.680Z,0.30
2023-12-21T09:58:47.870Z,0.40
2023-12-21T10:01:21.429Z,0.30
2023-12-21T10:03:54.512Z,0.30
2023-12-21T10:06:29.973Z,0.30
2023-12-21T10:09:05.675Z,0.30
2023-12-21T10:11:39.434Z,0.30
2023-12-21T10:14:20.893Z,0.30
2023-12-21T10:16:53.733Z,0.40
2023-12-21T10:19:26.482Z,0.40
2023-12-21T10:22:01.203Z,0.40
2023-12-21T10:24:35.831Z,0.40
2023-12-21T10:27:16.752Z,0.30
2023-12-21T10:29:57.622Z,0.50
2023-12-21T10:32:29.662Z,0.40
2023-12-21T10:35:02.921Z,0.30
2023-12-21T10:37:37.830Z,0.40
2023-12-21T10:40:15.595Z,0.43
2023-12-21T10:42:50.645Z,0.40
2023-12-21T10:45:33.400Z,0.60
2023-12-21T10:48:16.844Z,0.40
2023-12-21T10:50:52.457Z,0.30
2023-12-21T10:53:27.860Z,0.50
2023-12-21T10:56:02.936Z,0.40
2023-12-21T10:58:36.555Z,0.32
2023-12-21T11:01:10.904Z,0.30
2023-12-21T11:03:43.664Z,0.30
2023-12-21T11:06:17.664Z,0.30
2023-12-21T11:08:52.942Z,0.30
2023-12-21T11:11:26.950Z,0.30
2023-12-21T11:13:59.143Z,0.35
2023-12-21T11:16:36.927Z,0.30
2023-12-21T11:19:12.569Z,0.30
2023-12-21T11:21:46.030Z,0.30
2023-12-21T11:24:28.026Z,0.73
2023-12-21T11:27:01.861Z,0.30
2023-12-21T11:29:34.791Z,0.30
2023-12-21T11:32:08.626Z,0.30
2023-12-21T11:34:41.999Z,0.30
2023-12-21T11:37:26.739Z,0.40
2023-12-21T11:40:06.074Z,0.45
2023-12-21T11:42:39.219Z,0.30
2023-12-21T11:45:13.456Z,0.40
2023-12-21T11:47:48.774Z,0.38
2023-12-21T11:50:24.660Z,0.30
2023-12-21T11:53:14.141Z,0.60
2023-12-21T11:55:50.700Z,0.40
2023-12-21T11:58:27.878Z,1.20
2023-12-21T12:01:01.083Z,0.82
2023-12-21T12:03:34.928Z,0.40
2023-12-21T12:06:07.880Z,0.50
2023-12-21T12:08:40.604Z,0.40
2023-12-21T12:11:15.721Z,0.60
2023-12-21T12:13:48.375Z,0.40
2023-12-21T12:16:21.375Z,0.40
2023-12-21T12:18:55.945Z,0.32
2023-12-21T12:21:31.694Z,0.40
2023-12-21T12:24:05.238Z,0.30
2023-12-21T12:26:40.242Z,0.32
2023-12-21T12:29:13.027Z,0.50
2023-12-21T12:31:45.658Z,0.95
2023-12-21T12:34:20.534Z,0.50
2023-12-21T12:36:57.804Z,0.60
2023-12-21T12:39:30.960Z,0.30
2023-12-21T12:42:08.061Z,0.52
2023-12-21T12:44:41.363Z,0.35
2023-12-21T12:47:14.773Z,0.47
2023-12-21T12:49:47.751Z,0.40
2023-12-21T12:52:23.671Z,0.40
2023-12-21T12:54:57.761Z,0.45
2023-12-21T12:57:32.924Z,0.40
2023-12-21T13:00:06.530Z,0.40
2023-12-21T13:02:38.976Z,0.40
2023-12-21T13:05:12.868Z,0.60
2023-12-21T13:07:46.587Z,0.30
2023-12-21T13:10:19.863Z,1.33
2023-12-21T13:12:54.973Z,1.58
2023-12-21T13:15:29.648Z,0.52
2023-12-21T13:18:03.589Z,0.82
2023-12-21T13:20:36.808Z,1.70
2023-12-21T13:23:09.162Z,0.77
2023-12-21T13:25:41.920Z,4.97
2023-12-21T13:28:30.466Z,0.50
2023-12-21T13:31:04.418Z,0.40
2023-12-21T13:33:36.878Z,0.40
2023-12-21T13:36:10.525Z,0.50
2023-12-21T13:38:43.087Z,0.50
2023-12-21T13:41:16.090Z,0.75
2023-12-21T13:43:53.650Z,4.45
2023-12-21T13:46:26.955Z,0.88
2023-12-21T13:48:59.348Z,1.45
2023-12-21T13:51:32.488Z,0.52
2023-12-21T13:54:04.985Z,0.50
2023-12-21T13:56:37.959Z,0.55
2023-12-21T13:59:12.923Z,0.60
2023-12-21T14:01:45.910Z,0.77
2023-12-21T14:04:18.312Z,1.52
2023-12-21T14:06:51.304Z,3.25
2023-12-21T14:09:23.610Z,1.35
2023-12-21T14:11:56.681Z,0.50
2023-12-21T14:14:31.767Z,0.57
2023-12-21T14:17:05.082Z,0.80
2023-12-21T14:19:38.836Z,0.82
2023-12-21T14:22:11.631Z,0.45
2023-12-21T14:24:44.135Z,3.53
2023-12-21T14:27:20.738Z,0.43
2023-12-21T14:29:55.729Z,0.55
2023-12-21T14:32:29.876Z,1.45
2023-12-21T14:35:05.972Z,5.47
2023-12-21T14:37:38.868Z,2.25
2023-12-21T14:40:12.523Z,0.90
2023-12-21T14:42:45.483Z,1.05
2023-12-21T14:45:20.401Z,0.70
2023-12-21T14:47:53.478Z,0.70
2023-12-21T14:50:25.965Z,0.70
2023-12-21T14:52:58.840Z,0.40
2023-12-21T14:55:31.145Z,0.60
2023-12-21T14:58:04.439Z,0.47
2023-12-21T15:00:39.530Z,0.50
2023-12-21T15:03:12.721Z,0.65
2023-12-21T15:05:45.429Z,0.50
2023-12-21T15:08:18.373Z,0.75
2023-12-21T15:10:50.905Z,0.90
2023-12-21T15:13:25.933Z,0.40
2023-12-21T15:16:00.946Z,0.63
2023-12-21T15:18:37.129Z,0.68
2023-12-21T15:21:10.602Z,1.98
2023-12-21T15:23:45.372Z,1.00
2023-12-21T15:26:17.857Z,0.95
2023-12-21T15:28:50.786Z,1.20
2023-12-21T15:31:26.078Z,1.10
2023-12-21T15:33:59.032Z,0.95
2023-12-21T15:36:32.791Z,1.00
2023-12-21T15:39:07.523Z,0.30
2023-12-21T15:41:40.096Z,1.10
2023-12-21T15:44:13.128Z,1.10
2023-12-21T15:46:48.296Z,0.93
2023-12-21T15:49:22.097Z,1.30
2023-12-21T15:51:54.844Z,0.70
2023-12-21T15:54:27.803Z,2.15
2023-12-21T15:57:00.147Z,0.90
2023-12-21T15:59:36.443Z,0.73
2023-12-21T16:02:11.534Z,1.80
2023-12-21T16:04:44.225Z,0.82
2023-12-21T16:07:16.821Z,1.55
2023-12-21T16:09:52.520Z,1.02
2023-12-21T16:12:25.207Z,1.20
2023-12-21T16:14:58.409Z,1.65
2023-12-21T16:17:33.504Z,1.25
2023-12-21T16:20:08.758Z,1.15
2023-12-21T16:22:41.072Z,1.20
2023-12-21T16:25:14.242Z,1.23
2023-12-21T16:27:46.602Z,1.92
2023-12-21T16:30:19.967Z,1.10
2023-12-21T16:32:56.536Z,1.67
2023-12-21T16:35:29.441Z,0.98
2023-12-21T16:38:01.758Z,1.13
2023-12-21T16:40:34.628Z,2.28
2023-12-21T16:43:07.091Z,0.70
2023-12-21T16:45:39.978Z,1.35
2023-12-21T16:48:15.117Z,1.30
2023-12-21T16:50:50.761Z,1.40
2023-12-21T16:53:23.082Z,0.95
2023-12-21T16:55:56.266Z,1.30
2023-12-21T16:58:28.748Z,1.20
2023-12-21T17:01:01.566Z,1.30
2023-12-21T17:03:36.629Z,1.10
2023-12-21T17:06:10.081Z,1.05
2023-12-21T17:08:42.361Z,1.30
2023-12-21T17:11:14.961Z,1.70
2023-12-21T17:13:47.266Z,1.30
2023-12-21T17:16:24.565Z,1.67
2023-12-21T17:19:00.378Z,2.03
2023-12-21T17:21:33.362Z,1.50
2023-12-21T17:24:06.482Z,1.33
2023-12-21T17:26:40.642Z,1.80
2023-12-21T17:29:14.170Z,1.63
2023-12-21T17:31:47.072Z,1.52
2023-12-21T17:34:22.235Z,1.35
2023-12-21T17:36:55.166Z,1.40
2023-12-21T17:39:27.286Z,0.60
2023-12-21T17:41:59.724Z,1.40
2023-12-21T17:44:33.483Z,1.40
2023-12-21T17:47:06.005Z,1.45
2023-12-21T17:49:40.651Z,2.33
2023-12-21T17:52:15.474Z,1.17
2023-12-21T17:54:47.648Z,1.80
2023-12-21T17:57:20.748Z,1.95
2023-12-21T17:59:53.123Z,1.05
2023-12-21T18:02:25.774Z,1.83
2023-12-21T18:05:00.527Z,2.35
2023-12-21T18:07:33.588Z,0.93
2023-12-21T18:10:05.817Z,1.98
2023-12-21T18:12:38.248Z,2.30
2023-12-21T18:15:11.285Z,2.78
2023-12-21T18:17:47.002Z,2.28
2023-12-21T18:20:24.289Z,2.08
2023-12-21T18:22:56.684Z,3.67
2023-12-21T18:25:28.846Z,2.38
2023-12-21T18:28:01.565Z,1.33
2023-12-21T18:30:33.561Z,3.33
2023-12-21T18:33:26.563Z,2.28
2023-12-21T18:36:00.918Z,2.10
2023-12-21T18:38:32.965Z,2.67
2023-12-21T18:41:04.729Z,1.98
2023-12-21T18:43:37.017Z,1.38
2023-12-21T18:46:23.151Z,2.83
2023-12-21T18:49:17.091Z,1.15
2023-12-21T18:51:54.533Z,3.33
2023-12-21T18:54:26.114Z,1.77
2023-12-21T18:56:58.206Z,2.03
2023-12-21T18:59:35.857Z,1.15
2023-12-21T19:02:08.214Z,3.17
2023-12-21T19:04:39.989Z,2.42
2023-12-21T19:07:15.698Z,3.47
2023-12-21T19:09:47.442Z,2.78
2023-12-21T19:12:21.935Z,2.03
2023-12-21T19:14:55.639Z,2.22
2023-12-21T19:17:27.661Z,1.75
2023-12-21T19:20:05.112Z,2.08
2023-12-21T19:22:42.324Z,2.72
2023-12-21T19:25:14.276Z,0.82
2023-12-21T19:27:47.754Z,1.95
2023-12-21T19:30:21.080Z,3.03
2023-12-21T19:32:53.004Z,2.35
2023-12-21T19:35:24.405Z,2.88
2023-12-21T19:39:01.378Z,3.10
2023-12-21T19:41:37.614Z,3.22
2023-12-21T19:44:11.778Z,1.23
2023-12-21T19:46:44.212Z,3.20
2023-12-21T19:49:16.488Z,1.83
2023-12-21T19:51:48.880Z,2.65
2023-12-21T19:54:20.752Z,3.13
2023-12-21T19:56:55.433Z,3.58
2023-12-21T19:59:28.064Z,3.50
2023-12-21T20:02:03.013Z,3.40
2023-12-21T20:04:36.626Z,2.90
2023-12-21T20:07:08.985Z,3.85
2023-12-21T20:09:40.946Z,4.25
2023-12-21T20:12:15.883Z,4.95
2023-12-21T20:14:47.769Z,1.92
2023-12-21T20:17:21.485Z,3.63
2023-12-21T20:19:55.904Z,3.40
2023-12-21T20:22:28.458Z,4.05
2023-12-21T20:25:06.145Z,3.38
2023-12-21T20:27:42.977Z,3.78
2023-12-21T20:30:15.059Z,3.60
2023-12-21T20:32:49.556Z,3.53
2023-12-21T20:35:22.527Z,2.05
2023-12-21T20:37:54.682Z,5.00
2023-12-21T20:40:27.024Z,2.65
2023-12-21T20:43:03.347Z,2.65
2023-12-21T20:45:36.756Z,3.80
2023-12-21T20:48:09.509Z,2.90
2023-12-21T20:50:41.390Z,3.20
2023-12-21T20:53:13.989Z,3.65
2023-12-21T20:55:45.892Z,1.92
2023-12-21T20:58:21.344Z,2.25
2023-12-21T21:00:52.940Z,3.80
2023-12-21T21:03:24.919Z,3.90
2023-12-21T21:05:56.518Z,2.92
2023-12-21T21:08:28.267Z,3.53
2023-12-21T21:10:59.954Z,2.13
2023-12-21T21:13:35.130Z,3.92
2023-12-21T21:16:07.366Z,4.15
2023-12-21T21:18:39.233Z,4.55
2023-12-21T21:21:11.707Z,2.22
2023-12-21T21:23:47.168Z,3.58
2023-12-21T21:26:20.107Z,3.92
2023-12-21T21:28:56.976Z,2.85
2023-12-21T21:31:29.020Z,3.92
2023-12-21T21:34:01.286Z,2.78
2023-12-21T21:36:32.976Z,3.22
2023-12-21T21:39:05.320Z,3.00
2023-12-21T21:41:37.491Z,2.72
2023-12-21T21:44:16.276Z,2.65
2023-12-21T21:46:51.342Z,2.50
2023-12-21T21:49:25.809Z,3.08
2023-12-21T21:52:15.848Z,3.10
2023-12-21T21:54:50.080Z,2.38
2023-12-21T21:57:25.936Z,3.17
2023-12-21T22:00:01.135Z,3.22
2023-12-21T22:02:35.478Z,4.55
2023-12-21T22:05:08.242Z,3.22
2023-12-21T22:07:41.864Z,3.30
2023-12-21T22:10:14.170Z,1.50
2023-12-21T22:12:47.520Z,3.38
2023-12-21T22:15:54.903Z,3.00
2023-12-21T22:18:31.816Z,2.45
2023-12-21T22:21:06.537Z,0.95
2023-12-21T22:23:38.047Z,3.20
2023-12-21T22:26:10.097Z,2.35
2023-12-21T22:28:41.846Z,2.53
2023-12-21T22:31:19.538Z,2.17
2023-12-21T22:33:52.285Z,2.85
2023-12-21T22:36:24.112Z,2.45
2023-12-21T22:38:55.943Z,2.88
2023-12-21T22:41:28.054Z,3.35
2023-12-21T22:43:59.506Z,2.53
2023-12-21T22:46:33.916Z,2.25
2023-12-21T22:49:05.412Z,2.75
2023-12-21T22:51:37.114Z,2.38
2023-12-21T22:54:09.683Z,2.75
2023-12-21T22:56:42.246Z,2.47
2023-12-21T22:59:15.916Z,2.80
2023-12-21T23:01:51.362Z,2.97
2023-12-21T23:04:25.565Z,2.15
2023-12-21T23:06:57.829Z,3.65
2023-12-21T23:09:29.379Z,2.08
2023-12-21T23:12:02.200Z,2.40
2023-12-21T23:14:34.063Z,1.98
2023-12-21T23:17:08.784Z,3.13
2023-12-21T23:19:41.713Z,2.58
2023-12-21T23:22:11.576Z,2.83
2023-12-21T23:24:44.565Z,4.20
2023-12-21T23:27:16.952Z,3.40
2023-12-21T23:29:53.177Z,3.08
2023-12-21T23:32:31.433Z,1.85
2023-12-21T23:35:13.409Z,1.45
2023-12-21T23:38:05.808Z,3.35
2023-12-21T23:40:49.014Z,3.90
2023-12-21T23:43:21.430Z,4.32
2023-12-21T23:45:53.500Z,3.65
2023-12-21T23:48:28.268Z,2.78
2023-12-21T23:51:00.105Z,1.98
2023-12-21T23:53:32.026Z,2.40
2023-12-21T23:56:03.758Z,2.47
2023-12-21T23:58:35.829Z,2.05
